WETTERDATEN

GESTERN
Time Temp. Taup. r.Fe. Windrich Windstärke Windböe Druck 1h Prec. 24h Prec.
00:01 14.7 8 64 310 0.3 0.8 1004.3 0.0000 0.0000
00:12 14.6 8.1 65 270 0.3 1.1 1004.3 0.0000 0.0000
00:22 14.6 8.1 65 303 0.3 0.8 1004.3 0.0000 0.0000
00:26 14.5 8 65 320 0.3 0.8 1004.3 0.0000 0.0000
00:36 14.4 7.9 65 270 0.3 1.1 1004.3 0.0000 0.0000
00:46 14.4 7.9 65 270 0.3 0.8 1004.2 0.0000 0.0000
00:56 14.3 7.8 65 270 0.3 1.1 1004.3 0.0000 0.0000
01:06 14.3 7.8 65 270 0.3 1.1 1004.2 0.0000 0.0000
01:17 14.3 8 66 270 0.3 1.1 1004.3 0.0000 0.0000
01:26 14.3 7.8 65 270 0.3 1.1 1004.3 0.0000 0.0000
01:36 14.2 7.9 66 270 0.3 1.1 1004.3 0.0000 0.0000
01:47 14.2 7.9 66 270 0.3 0.8 1004.2 0.0000 0.0000
01:57 14.2 7.9 66 270 0.3 1.1 1004.3 0.0000 0.0000
02:07 14 7.8 66 270 0.3 1.4 1004.2 0.0000 0.0000
02:16 14 8 67 270 0.3 0.8 1004.6 0.0000 0.0000
02:27 13.8 7.8 67 270 0.3 1.1 1004.7 0.0000 0.0000
02:37 13.6 7.8 68 270 0.3 1.4 1004.7 0.0000 0.0000
02:47 13.4 7.8 69 270 0.3 0.8 1004.6 0.1000 0.1000
02:57 13.4 7.8 69 270 0.3 0.8 1004.7 0.2000 0.2000
03:03 13.4 8 70 270 0.3 1.1 1004.7 0.3000 0.3000
03:14 13.4 8.3 71 270 0.3 1.1 1004.7 0.4000 0.4000
03:23 13.4 8.3 71 270 0.3 1.1 1004.7 0.6000 0.6000
03:33 13.3 8.4 72 270 0.3 1.1 1004.8 0.5000 0.6000
03:44 13.2 8.3 72 270 0.3 1.1 1004.6 0.6000 0.7000
03:54 13.2 8.5 73 315 0.3 0.8 1004.5 0.5000 0.7000
04:04 13.1 8.4 73 327 0.3 0.8 1004.6 0.5000 0.8000
04:13 13.1 8.6 74 270 0.3 0.8 1004.5 0.3000 0.8000
04:24 13 8.5 74 270 0.3 0.8 1004.5 0.2000 0.8000
04:34 13 8.5 74 270 0.3 1.1 1004.5 0.1000 0.8000
04:44 12.9 8.4 74 270 0.3 1.1 1004.5 0.1000 0.8000
04:54 12.8 8.5 75 270 0.3 1.1 1004.4 0.0000 0.8000
05:04 12.7 8.4 75 270 0.3 1.1 1004.4 0.0000 0.8000
05:14 12.7 8.6 76 270 0.3 1.1 1004.4 0.1000 0.9000
05:24 12.6 8.5 76 248 0.8 1.1 1004.3 0.2000 1.0000
05:35 12.6 8.5 76 270 0.3 1.1 1004.3 0.2000 1.0000
05:47 12.7 8.8 77 270 0.3 1.1 1004.3 0.3000 1.1000
05:57 12.7 8.8 77 270 0.3 1.1 1004.4 0.3000 1.1000
06:07 12.6 8.7 77 270 0.3 1.1 1004.4 0.2000 1.1000
06:17 12.7 8.8 77 251 0.8 1.4 1004.4 0.1000 1.1000
06:28 12.7 8.8 77 270 0.3 1.1 1004.3 0.1000 1.1000
06:38 12.6 8.7 77 270 0.3 1.1 1004.6 0.1000 1.1000
06:47 12.6 8.7 77 247 0.8 1.4 1004.6 0.0000 1.1000
06:57 12.7 8.8 77 270 0.3 1.1 1004.5 0.0000 1.1000
07:08 12.8 8.9 77 270 0.3 1.1 1004.3 0.1000 1.2000
07:18 12.9 9 77 270 0.3 1.1 1004.5 0.1000 1.2000
07:28 13 9.1 77 270 0.3 1.1 1004.5 0.1000 1.2000
07:38 13 9.1 77 270 0.3 1.1 1004.6 0.1000 1.2000
07:48 13.1 9.2 77 270 0.3 1.4 1004.2 0.2000 1.3000
07:58 13.2 9.3 77 270 0.3 0.8 1004.2 0.1000 1.3000
08:08 13.3 9.4 77 270 0.3 1.1 1003.9 0.1000 1.3000
08:18 13.4 9.3 76 270 0.3 0.8 1004.1 0.1000 1.3000
08:28 13.5 9.4 76 270 0.3 1.1 1004.3 0.1000 1.3000
08:38 13.5 9.4 76 270 0.3 0.8 1004.4 0.1000 1.3000
08:49 13.5 9.4 76 270 0.3 0.8 1004.4 0.0000 1.3000
08:59 13.6 9.5 76 270 0.3 1.1 1004.3 0.0000 1.3000
09:08 13.6 9.5 76 270 0.3 0.8 1004.2 0.0000 1.3000
09:18 13.7 9.6 76 270 0.3 0.8 1004.1 0.0000 1.3000
09:29 13.7 9.6 76 270 0.3 1.1 1003.9 0.0000 1.3000
09:39 13.8 9.8 77 315 0.3 0.8 1004 0.0000 1.3000
09:48 13.8 9.8 77 270 0.3 0.8 1003.9 0.0000 1.3000
09:59 13.9 9.9 77 270 0.3 1.4 1003.8 0.0000 1.3000
10:09 14 9.8 76 270 0.3 1.1 1003.8 0.0000 1.3000
10:19 14.1 10.1 77 270 0.3 1.1 1003.6 0.0000 1.3000
10:29 14.4 10.2 76 270 0.3 1.1 1003.7 0.0000 1.3000
10:39 14.6 10.4 76 240 0.8 1.4 1003.7 0.0000 1.3000
10:49 14.7 10.3 75 307 0.3 1.1 1003.9 0.0000 1.3000
10:59 14.9 10.3 74 270 0.3 1.4 1004 0.0000 1.3000
11:10 15 10.2 73 270 0.3 1.9 1003.8 0.0000 1.3000
11:19 15.1 10.3 73 270 0.3 1.4 1003.6 0.0000 1.3000
11:29 15.2 10.2 72 270 0.3 1.1 1003.3 0.0000 1.3000
11:39 15.5 10.5 72 237 0.8 1.9 1003.4 0.0000 1.3000
11:50 15.8 10.6 71 250 0.8 1.4 1003.4 0.0000 1.3000
12:00 15.9 10.4 70 244 0.8 1.9 1003.5 0.0000 1.3000
12:09 16 10.5 70 253 0.8 1.9 1003.4 0.0000 1.3000
12:20 16 10.3 69 244 0.8 1.9 1003.4 0.0000 1.3000
12:30 15.9 10.2 69 248 0.8 2.2 1003.3 0.0000 1.3000
12:40 15.9 10.2 69 270 0.3 1.4 1003.3 0.0000 1.3000
12:50 15.8 10.1 69 270 0.3 1.1 1003.2 0.0000 1.3000
13:00 15.8 10.1 69 333 0.3 1.4 1003.1 0.0000 1.3000
13:10 15.4 10.2 71 0 0.8 1.4 1003.3 0.1000 1.4000
13:14 15.1 9.9 71 0 0.3 1.1 1003.5 0.3000 1.6000
13:25 14.9 10.1 73 320 0.3 1.1 1003.6 0.5000 1.8000
13:35 14.7 9.9 73 339 0.3 0.8 1003.5 0.7000 2.0000
13:45 14.7 10.1 74 270 0.3 1.4 1003.7 0.8000 2.1000
13:55 14.7 10.1 74 270 0.3 1.4 1003.7 0.9000 2.2000
14:05 14.7 10.1 74 270 0.3 1.1 1003.6 0.8000 2.2000
14:15 14.7 10.1 74 270 0.3 1.1 1003.8 0.5000 2.2000
14:25 14.7 10.1 74 270 0.3 1.1 1003.8 0.4000 2.2000
14:35 14.6 10 74 270 0.3 1.1 1003.8 0.3000 2.3000
14:45 14.5 9.9 74 258 0.8 1.4 1003.8 0.2000 2.3000
14:55 14.5 10.1 75 270 0.8 1.4 1003.9 0.1000 2.3000
15:05 14.4 10 75 270 0.8 2.5 1003.8 0.1000 2.3000
15:16 14.3 9.9 75 270 0.3 1.4 1003.8 0.1000 2.3000
15:26 14.3 9.9 75 259 0.8 1.4 1003.9 0.0000 2.3000
15:35 14.2 9.8 75 259 0.8 2.2 1003.9 0.0000 2.3000
15:45 14.2 9.8 75 252 0.8 1.9 1004.1 0.0000 2.3000
15:56 14.2 9.8 75 270 0.8 1.9 1003.7 0.0000 2.3000
16:06 14.2 9.6 74 270 0.8 1.4 1003.8 0.0000 2.3000
16:16 14.2 9.6 74 270 0.8 2.2 1003.7 0.0000 2.3000
16:26 14.2 9.6 74 257 0.8 1.4 1003.7 0.0000 2.3000
16:36 14.1 9.5 74 270 0.3 1.9 1003.5 0.0000 2.3000
16:46 14.2 9.6 74 270 0.3 1.4 1003.6 0.0000 2.3000
16:56 14.1 9.5 74 258 0.8 1.9 1003.5 0.0000 2.3000
17:06 14 9.4 74 257 0.8 1.4 1003.7 0.0000 2.3000
17:16 14 9.4 74 257 0.8 1.4 1003.6 0.0000 2.3000
17:26 14 9.4 74 270 0.3 1.1 1003.7 0.0000 2.3000
17:37 14 9.6 75 270 0.3 1.4 1003.9 0.0000 2.3000
17:47 14.1 9.7 75 270 0.3 1.4 1004 0.0000 2.3000
17:56 14.1 9.7 75 270 0.3 1.1 1004.2 0.0000 2.3000
18:06 14.1 9.7 75 270 0.3 1.1 1004.1 0.0000 2.3000
18:17 14.2 9.8 75 270 0.3 1.1 1004 0.0000 2.3000
18:27 14.3 9.9 75 270 0.3 1.4 1004.1 0.0000 2.3000
18:37 14.3 9.9 75 270 0.3 1.1 1004.1 0.0000 2.3000
18:47 14.3 9.9 75 270 0.3 1.4 1004.1 0.0000 2.3000
18:57 14.4 10 75 270 0.3 1.4 1004.2 0.0000 2.3000
19:07 14.4 9.8 74 270 0.3 1.1 1004.3 0.0000 2.3000
19:17 14.4 9.8 74 270 0.3 1.4 1004.4 0.0000 2.3000
19:28 14.4 9.8 74 270 0.3 1.1 1004.4 0.0000 2.3000
19:37 14.4 9.8 74 270 0.3 1.1 1004.3 0.0000 2.3000
19:47 14.4 9.8 74 270 0.3 0.8 1004.2 0.0000 2.3000
19:58 14.3 9.7 74 270 0.3 1.1 1004.1 0.0000 2.3000
20:08 14.4 9.8 74 270 0.3 1.1 1004.2 0.0000 2.3000
20:17 14.4 9.8 74 270 0.3 1.1 1004.4 0.0000 2.3000
20:27 14.3 9.9 75 270 0.3 1.1 1004.7 0.0000 2.3000
20:38 14.3 9.9 75 270 0.3 1.1 1004.7 0.0000 2.3000
20:48 14.3 9.9 75 270 0.3 1.1 1005 0.0000 2.3000
20:58 14.2 9.8 75 270 0.3 1.4 1005.1 0.0000 2.3000
21:08 14.2 9.8 75 270 0.3 1.1 1005.2 0.0000 2.3000
21:18 14.1 9.7 75 270 0.3 1.1 1005.1 0.0000 2.3000
21:28 14 9.4 74 270 0.3 1.1 1005.3 0.0000 2.3000
21:38 14 9.4 74 270 0.3 1.1 1005.4 0.0000 2.3000
21:49 13.8 9.3 74 270 0.3 1.4 1005.5 0.0000 2.3000
21:58 13.7 9.2 74 270 0.8 1.1 1005.6 0.0000 2.3000
22:08 13.5 9 74 270 0.8 1.4 1005.5 0.0000 2.3000
22:19 13.4 8.9 74 270 0.3 1.1 1005.6 0.0000 2.3000
22:29 13.4 8.9 74 270 0.3 1.1 1005.5 0.0000 2.3000
22:38 13.3 8.8 74 270 0.3 0.8 1005.6 0.0000 2.3000
22:48 13.3 8.8 74 270 0.3 2.2 1005.9 0.0000 2.3000
22:59 13.3 8.8 74 256 0.8 1.4 1005.9 0.0000 2.3000
23:09 13.2 8.7 74 270 0.3 1.4 1005.9 0.0000 2.3000
23:22 13.2 8.7 74 270 0.3 1.1 1005.9 0.0000 2.3000
23:31 13.1 8.6 74 270 0.3 1.1 1006 0.0000 2.3000
23:41 13 8.5 74 270 0.3 1.1 1005.9 0.0000 2.3000
23:52 13 8.5 74 270 0.3 0.8 1005.9 0.0000 2.3000

TAGESSTATISTIK

2021-05-11
TEMPERATUR
MITTEL
14.0
MAXIMUM
16.0
12:09
MINIMUM
12.6
05:24
LUFTDRUCK
MITTEL
1004.3
MAXIMUM
1006.0
23:31
MINIMUM
1003.1
13:00
TAUPUNKT
MITTEL
9.3
MAXIMUM
10.6
11:50
MINIMUM
7.8
00:56
FEUCHTIGKEIT
MITTEL
73
MAXIMUM
77
05:47
MINIMUM
64
00:01
WINDSTÄRKE
MITTEL
0.4
MAXIMUM
0.8
05:24
WINDBÖE
MITTEL
1.2
MAXIMUM
2.5
15:05
WINDRICHTUNG
VORHERRSCHENDE
W
88.2%
N
2.1
NO
0.0
O
0.0
SO
0.0
S
0.0
SW
3.5
W
88.2
NW
6.3
NIEDERSCHLAG
REGEN STUNDE
0.9
REGEN TAG
2.3
TEMPERATUR (°C)
MINIMUM
12.6
MAXIMUM
16.0
MITTEL
14.0
LUFTDRUCK (hpa)
MINIMUM
1003.1
MAXIMUM
1006.0
MITTEL
1004.3
MESSGERÄT